createdAt,value
2022-10-19T00:01:07.623Z,101038.75
2022-10-19T00:03:36.108Z,101029.31
2022-10-19T00:06:18.649Z,101020.66
2022-10-19T00:08:46.448Z,101016.03
2022-10-19T00:11:13.864Z,101021.94
2022-10-19T00:13:40.885Z,101020.66
2022-10-19T00:16:11.456Z,101024.88
2022-10-19T00:18:39.790Z,101016.47
2022-10-19T00:21:08.964Z,101007.19
2022-10-19T00:23:36.264Z,101007.66
2022-10-19T00:26:03.352Z,101008.72
2022-10-19T00:28:30.448Z,101008.91
2022-10-19T00:30:57.402Z,101005.31
2022-10-19T00:33:24.063Z,101007.63
2022-10-19T00:35:52.639Z,100985.56
2022-10-19T00:38:21.049Z,100988.47
2022-10-19T00:40:48.402Z,100997.53
2022-10-19T00:43:17.469Z,101008.47
2022-10-19T00:45:44.225Z,100987.22
2022-10-19T00:48:15.509Z,100979.63
2022-10-19T00:50:43.390Z,100984.28
2022-10-19T00:53:10.589Z,100989.53
2022-10-19T00:55:39.642Z,100980.66
2022-10-19T00:58:06.384Z,100979.19
2022-10-19T01:00:34.891Z,100974.13
2022-10-19T01:03:03.089Z,100968.00
2022-10-19T01:05:30.946Z,100958.72
2022-10-19T01:07:57.716Z,100956.16
2022-10-19T01:10:39.338Z,100955.09
2022-10-19T01:13:34.861Z,100946.06
2022-10-19T01:16:15.587Z,100941.00
2022-10-19T01:18:54.492Z,100955.72
2022-10-19T01:21:26.131Z,100956.97
2022-10-19T01:24:15.399Z,100961.78
2022-10-19T01:27:23.206Z,100959.88
2022-10-19T01:30:15.398Z,100953.13
2022-10-19T01:33:07.599Z,100946.00
2022-10-19T01:35:58.001Z,100936.69
2022-10-19T01:38:51.545Z,100934.56
2022-10-19T01:41:28.706Z,100939.38
2022-10-19T01:44:16.065Z,100941.72
2022-10-19T01:46:45.084Z,100947.41
2022-10-19T01:49:19.869Z,100941.28
2022-10-19T01:51:53.620Z,100944.88
2022-10-19T01:54:22.092Z,100942.19
2022-10-19T01:56:51.607Z,100943.84
2022-10-19T01:59:23.375Z,100947.25
2022-10-19T02:01:51.577Z,100940.69
2022-10-19T02:04:21.209Z,100951.00
2022-10-19T02:06:49.426Z,100940.88
2022-10-19T02:09:18.349Z,100937.94
2022-10-19T02:11:54.677Z,100924.44
2022-10-19T02:14:28.894Z,100928.44
2022-10-19T02:17:02.675Z,100928.91
2022-10-19T02:19:29.319Z,100933.72
2022-10-19T02:21:56.975Z,100941.88
2022-10-19T02:24:23.636Z,100941.28
2022-10-19T02:26:50.350Z,100942.94
2022-10-19T02:29:17.150Z,100932.41
2022-10-19T02:31:44.356Z,100946.09
2022-10-19T02:34:11.608Z,100936.59
2022-10-19T02:36:38.395Z,100928.59
2022-10-19T02:39:07.006Z,100915.56
2022-10-19T02:41:54.307Z,100920.19
2022-10-19T02:44:27.763Z,100914.72
2022-10-19T02:47:01.022Z,100914.25
2022-10-19T02:49:29.639Z,100911.75
2022-10-19T02:52:04.827Z,100905.84
2022-10-19T02:54:32.206Z,100904.78
2022-10-19T02:56:59.302Z,100890.25
2022-10-19T02:59:26.357Z,100884.34
2022-10-19T03:01:53.238Z,100884.41
2022-10-19T03:04:19.868Z,100880.59
2022-10-19T03:06:46.738Z,100873.44
2022-10-19T03:09:13.369Z,100870.13
2022-10-19T03:11:39.958Z,100858.31
2022-10-19T03:14:06.629Z,100856.03
2022-10-19T03:16:33.278Z,100848.69
2022-10-19T03:18:59.931Z,100846.63
2022-10-19T03:21:26.682Z,100860.97
2022-10-19T03:23:53.319Z,100859.72
2022-10-19T03:26:20.060Z,100862.47
2022-10-19T03:28:46.782Z,100857.59
2022-10-19T03:31:14.196Z,100866.63
2022-10-19T03:33:41.663Z,100861.16
2022-10-19T03:36:22.950Z,100862.19
2022-10-19T03:38:51.924Z,100857.09
2022-10-19T03:41:20.216Z,100849.97
2022-10-19T03:43:46.925Z,100844.88
2022-10-19T03:46:13.731Z,100838.56
2022-10-19T03:48:40.426Z,100832.63
2022-10-19T03:51:14.268Z,100827.78
2022-10-19T03:53:41.553Z,100833.03
2022-10-19T03:56:11.835Z,100830.06
2022-10-19T03:58:40.052Z,100819.50
2022-10-19T04:01:09.835Z,100826.66
2022-10-19T04:03:37.249Z,100826.47
2022-10-19T04:06:09.946Z,100820.31
2022-10-19T04:08:37.233Z,100809.38
2022-10-19T04:11:07.231Z,100817.13
2022-10-19T04:13:34.947Z,100810.19
2022-10-19T04:16:02.066Z,100807.22
2022-10-19T04:18:28.967Z,100812.50
2022-10-19T04:21:04.497Z,100815.00
2022-10-19T04:23:34.073Z,100809.09
2022-10-19T04:26:02.604Z,100808.88
2022-10-19T04:28:29.728Z,100802.53
2022-10-19T04:30:56.731Z,100806.34
2022-10-19T04:33:23.699Z,100810.75
2022-10-19T04:35:50.330Z,100809.69
2022-10-19T04:38:16.963Z,100816.41
2022-10-19T04:40:43.675Z,100810.94
2022-10-19T04:43:10.292Z,100813.25
2022-10-19T04:45:36.962Z,100799.53
2022-10-19T04:48:07.767Z,100789.00
2022-10-19T04:50:34.388Z,100785.19
2022-10-19T04:53:01.071Z,100777.81
2022-10-19T04:55:27.889Z,100776.78
2022-10-19T04:57:54.599Z,100777.22
2022-10-19T05:00:21.347Z,100767.47
2022-10-19T05:02:48.088Z,100767.47
2022-10-19T05:05:15.116Z,100769.59
2022-10-19T05:07:41.728Z,100765.19
2022-10-19T05:10:09.563Z,100761.16
2022-10-19T05:12:36.206Z,100761.59
2022-10-19T05:15:03.430Z,100764.94
2022-10-19T05:17:31.931Z,100763.06
2022-10-19T05:19:59.312Z,100767.09
2022-10-19T05:22:26.107Z,100768.75
2022-10-19T05:24:55.897Z,100772.13
2022-10-19T05:27:25.287Z,100769.38
2022-10-19T05:29:53.664Z,100762.22
2022-10-19T05:32:20.383Z,100768.56
2022-10-19T05:34:47.020Z,100764.13
2022-10-19T05:37:13.696Z,100752.28
2022-10-19T05:39:40.357Z,100753.94
2022-10-19T05:42:07.004Z,100752.03
2022-10-19T05:44:34.999Z,100750.97
2022-10-19T05:47:02.371Z,100745.97
2022-10-19T05:49:29.107Z,100739.84
2022-10-19T05:51:55.862Z,100726.78
2022-10-19T05:54:24.985Z,100717.91
2022-10-19T05:56:54.371Z,100714.75
2022-10-19T05:59:22.192Z,100699.56
2022-10-19T06:01:48.873Z,100698.75
2022-10-19T06:06:43.830Z,100684.78
2022-10-19T06:09:11.216Z,100691.16
2022-10-19T06:11:40.397Z,100692.13
2022-10-19T06:14:11.134Z,100699.28
2022-10-19T06:16:38.226Z,100690.63
2022-10-19T06:19:05.481Z,100689.78
2022-10-19T06:21:33.447Z,100696.31
2022-10-19T06:24:05.289Z,100682.59
2022-10-19T06:26:33.542Z,100678.34
2022-10-19T06:29:01.678Z,100666.53
2022-10-19T06:31:29.582Z,100672.25
2022-10-19T06:33:56.480Z,100667.47
2022-10-19T06:36:26.365Z,100658.16
2022-10-19T06:38:53.327Z,100662.19
2022-10-19T06:41:20.818Z,100646.97
2022-10-19T06:43:56.971Z,100643.19
2022-10-19T06:46:25.443Z,100656.25
2022-10-19T06:49:01.269Z,100647.22
2022-10-19T06:51:30.132Z,100644.22
2022-10-19T06:53:57.544Z,100647.34
2022-10-19T06:56:25.366Z,100645.69
2022-10-19T06:58:52.394Z,100638.44
2022-10-19T07:01:19.406Z,100641.63
2022-10-19T07:03:46.265Z,100642.25
2022-10-19T07:06:13.750Z,100639.06
2022-10-19T07:08:42.764Z,100633.59
2022-10-19T07:11:16.644Z,100633.59
2022-10-19T07:13:43.748Z,100640.75
2022-10-19T07:16:17.590Z,100638.22
2022-10-19T07:18:48.695Z,100648.72
2022-10-19T07:21:17.294Z,100647.91
2022-10-19T07:23:45.510Z,100642.31
2022-10-19T07:26:21.472Z,100639.13
2022-10-19T07:28:49.212Z,100634.47
2022-10-19T07:31:18.997Z,100636.00
2022-10-19T07:33:46.157Z,100623.38
2022-10-19T07:36:14.021Z,100638.28
2022-10-19T07:38:41.212Z,100634.72
2022-10-19T07:41:12.960Z,100634.47
2022-10-19T07:43:40.651Z,100624.13
2022-10-19T07:46:11.249Z,100619.47
2022-10-19T07:48:38.001Z,100617.63
2022-10-19T07:51:07.580Z,100629.00
2022-10-19T07:53:35.139Z,100628.84
2022-10-19T07:56:11.414Z,100629.22
2022-10-19T07:58:40.287Z,100620.78
2022-10-19T08:01:12.890Z,100626.25
2022-10-19T08:06:27.287Z,100638.44
2022-10-19T08:08:55.174Z,100621.59
2022-10-19T08:11:21.828Z,100615.53
2022-10-19T08:13:48.564Z,100627.31
2022-10-19T08:23:07.619Z,100626.56
2022-10-19T08:25:34.680Z,100631.81
2022-10-19T08:28:01.311Z,100626.22
2022-10-19T08:30:30.068Z,100631.25
2022-10-19T08:32:56.769Z,100627.22
2022-10-19T08:35:23.498Z,100626.97
2022-10-19T08:37:50.482Z,100628.06
2022-10-19T08:40:22.874Z,100621.22
2022-10-19T08:43:02.485Z,100605.97
2022-10-19T08:45:57.803Z,100617.53
2022-10-19T08:48:37.116Z,100611.34
2022-10-19T08:51:06.435Z,100609.47
2022-10-19T08:53:54.429Z,100609.38
2022-10-19T08:56:50.016Z,100599.72
2022-10-19T08:59:16.253Z,100595.56
2022-10-19T09:01:54.465Z,100589.59
2022-10-19T09:04:37.557Z,100580.75
2022-10-19T09:07:30.187Z,100571.09
2022-10-19T09:10:15.708Z,100577.19
2022-10-19T09:12:58.535Z,100575.91
2022-10-19T09:15:46.420Z,100571.94
2022-10-19T09:21:33.358Z,100574.22
2022-10-19T09:24:26.922Z,100558.44
2022-10-19T09:26:57.291Z,100561.91
2022-10-19T09:29:44.421Z,100555.59
2022-10-19T09:32:22.209Z,100551.41
2022-10-19T09:34:52.987Z,100563.13
2022-10-19T09:37:26.012Z,100552.72
2022-10-19T09:39:55.561Z,100553.53
2022-10-19T09:42:30.583Z,100554.50
2022-10-19T09:45:01.004Z,100541.59
2022-10-19T09:47:39.655Z,100537.19
2022-10-19T09:50:14.563Z,100535.38
2022-10-19T09:52:43.114Z,100540.41
2022-10-19T09:55:15.847Z,100541.09
2022-10-19T09:57:47.878Z,100531.03
2022-10-19T10:00:20.186Z,100525.16
2022-10-19T10:02:55.480Z,100520.22
2022-10-19T10:05:38.102Z,100528.97
2022-10-19T10:08:13.187Z,100523.47
2022-10-19T10:10:44.935Z,100519.50
2022-10-19T10:13:20.364Z,100514.09
2022-10-19T10:15:55.781Z,100512.91
2022-10-19T10:18:24.743Z,100507.97
2022-10-19T10:21:13.442Z,100500.34
2022-10-19T10:23:40.119Z,100499.00
2022-10-19T10:26:17.887Z,100517.03
2022-10-19T10:28:50.234Z,100504.50
2022-10-19T10:31:22.546Z,100510.94
2022-10-19T10:33:56.795Z,100511.03
2022-10-19T10:36:26.109Z,100502.53
2022-10-19T10:38:58.755Z,100500.69
2022-10-19T10:41:29.127Z,100511.91
2022-10-19T10:44:06.821Z,100512.41
2022-10-19T10:46:42.691Z,100500.56
2022-10-19T10:49:21.412Z,100504.09
2022-10-19T10:52:05.910Z,100490.22
2022-10-19T10:54:33.194Z,100493.06
2022-10-19T10:57:04.369Z,100485.72
2022-10-19T10:59:56.436Z,100473.53
2022-10-19T11:02:47.001Z,100468.78
2022-10-19T11:05:23.252Z,100451.00
2022-10-19T11:08:01.182Z,100440.00
2022-10-19T11:10:36.139Z,100434.22
2022-10-19T11:13:16.323Z,100432.84
2022-10-19T11:15:53.017Z,100432.06
2022-10-19T11:18:28.040Z,100425.81
2022-10-19T11:21:06.584Z,100427.25
2022-10-19T11:24:10.904Z,100436.38
2022-10-19T11:26:46.290Z,100432.41
2022-10-19T11:29:13.004Z,100416.19
2022-10-19T11:31:48.390Z,100415.38
2022-10-19T11:34:32.656Z,100396.78
2022-10-19T11:37:34.346Z,100401.41
2022-10-19T11:40:27.602Z,100382.69
2022-10-19T11:43:00.034Z,100378.25
2022-10-19T11:45:41.845Z,100374.69
2022-10-19T11:48:54.905Z,100358.84
2022-10-19T11:51:35.097Z,100361.78
2022-10-19T11:54:27.145Z,100356.38
2022-10-19T11:57:12.302Z,100347.00
2022-10-19T12:00:13.646Z,100330.47
2022-10-19T12:02:51.167Z,100325.44
2022-10-19T12:05:26.542Z,100311.00
2022-10-19T12:07:53.523Z,100310.81
2022-10-19T12:10:43.179Z,100304.00
2022-10-19T12:13:14.290Z,100290.41
2022-10-19T12:15:48.369Z,100272.75
2022-10-19T12:18:36.743Z,100269.00
2022-10-19T12:21:11.672Z,100251.94
2022-10-19T12:23:41.554Z,100245.66
2022-10-19T12:26:14.925Z,100246.41
2022-10-19T12:28:47.736Z,100248.03
2022-10-19T12:31:15.553Z,100238.16
2022-10-19T12:34:16.697Z,100228.81
2022-10-19T12:37:03.619Z,100216.63
2022-10-19T12:39:42.380Z,100232.66
2022-10-19T12:42:20.402Z,100220.06
2022-10-19T12:48:19.810Z,100204.59
2022-10-19T12:50:49.231Z,100194.69
2022-10-19T12:53:31.427Z,100179.34
2022-10-19T12:56:03.336Z,100182.72
2022-10-19T12:58:47.658Z,100174.72
2022-10-19T13:01:42.161Z,100175.56
2022-10-19T13:04:22.788Z,100167.06
2022-10-19T13:07:01.766Z,100160.44
2022-10-19T13:09:43.272Z,100166.19
2022-10-19T13:12:19.802Z,100158.97
2022-10-19T13:14:55.679Z,100152.34
2022-10-19T13:17:37.322Z,100156.53
2022-10-19T13:20:16.385Z,100151.34
2022-10-19T13:22:49.003Z,100150.25
2022-10-19T13:25:30.284Z,100140.84
2022-10-19T13:28:06.072Z,100135.00
2022-10-19T13:30:38.565Z,100127.59
2022-10-19T13:33:30.027Z,100103.03
2022-10-19T13:35:59.887Z,100096.97
2022-10-19T13:39:05.770Z,100103.34
2022-10-19T13:41:38.528Z,100109.72
2022-10-19T13:44:05.170Z,100105.00
2022-10-19T13:46:32.069Z,100090.38
2022-10-19T13:49:05.070Z,100087.88
2022-10-19T13:51:34.516Z,100089.50
2022-10-19T13:54:10.285Z,100075.16
2022-10-19T13:57:01.339Z,100082.88
2022-10-19T13:59:37.227Z,100080.06
2022-10-19T14:02:23.681Z,100072.88
2022-10-19T14:05:20.849Z,100065.72
2022-10-19T14:08:05.613Z,100069.56
2022-10-19T14:10:56.253Z,100071.50
2022-10-19T14:13:22.471Z,100066.00
2022-10-19T14:15:55.359Z,100062.44
2022-10-19T14:18:42.543Z,100058.03
2022-10-19T14:21:10.352Z,100060.78
2022-10-19T14:23:42.804Z,100062.19
2022-10-19T14:26:18.822Z,100064.94
2022-10-19T14:28:51.734Z,100057.22
2022-10-19T14:31:22.891Z,100052.53
2022-10-19T14:34:01.290Z,100049.22
2022-10-19T14:36:34.463Z,100034.63
2022-10-19T14:39:01.267Z,100019.47
2022-10-19T14:41:27.910Z,100031.63
2022-10-19T14:43:57.113Z,100014.22
2022-10-19T14:46:31.965Z,100003.19
2022-10-19T14:49:05.749Z,100011.47
2022-10-19T14:51:43.055Z,99998.22
2022-10-19T14:54:25.483Z,99996.84
2022-10-19T14:57:06.675Z,99996.00
2022-10-19T14:59:44.874Z,100007.03
2022-10-19T15:02:37.512Z,100011.72
2022-10-19T15:05:06.742Z,100017.25
2022-10-19T15:07:41.940Z,99999.03
2022-10-19T15:10:20.492Z,99997.63
2022-10-19T15:12:48.694Z,99989.06
2022-10-19T15:15:22.407Z,99989.34
2022-10-19T15:18:01.782Z,99977.47
2022-10-19T15:20:44.127Z,99968.38
2022-10-19T15:23:41.482Z,99961.44
2022-10-19T15:26:17.535Z,99950.41
2022-10-19T15:28:48.105Z,99947.63
2022-10-19T15:31:20.871Z,99932.72
2022-10-19T15:33:56.913Z,99935.19
2022-10-19T15:36:25.143Z,99922.75
2022-10-19T15:39:06.095Z,99918.06
2022-10-19T15:41:45.288Z,99922.22
2022-10-19T15:45:01.081Z,99916.16
2022-10-19T15:47:27.782Z,99911.75
2022-10-19T15:49:56.233Z,99901.25
2022-10-19T15:52:28.366Z,99902.91
2022-10-19T15:54:57.976Z,99888.00
2022-10-19T15:57:38.801Z,99893.53
2022-10-19T16:00:17.221Z,99888.00
2022-10-19T16:02:44.275Z,99900.13
2022-10-19T16:05:11.532Z,99889.91
2022-10-19T16:07:40.262Z,99891.56
2022-10-19T16:10:08.719Z,99893.47
2022-10-19T16:12:35.854Z,99876.66
2022-10-19T16:15:02.454Z,99872.47
2022-10-19T16:17:29.147Z,99857.03
2022-10-19T16:19:55.792Z,99851.50
2022-10-19T16:22:22.527Z,99850.13
2022-10-19T16:24:49.340Z,99851.22
2022-10-19T16:27:16.520Z,99841.81
2022-10-19T16:29:44.420Z,99824.97
2022-10-19T16:32:11.170Z,99817.22
2022-10-19T16:34:38.117Z,99814.75
2022-10-19T16:37:06.936Z,99816.97
2022-10-19T16:39:34.855Z,99817.50
2022-10-19T16:42:01.807Z,99804.81
2022-10-19T16:44:29.376Z,99821.06
2022-10-19T16:46:56.985Z,99817.50
2022-10-19T16:49:24.477Z,99807.00
2022-10-19T16:51:54.761Z,99785.53
2022-10-19T16:54:24.119Z,99788.25
2022-10-19T16:56:50.758Z,99794.59
2022-10-19T16:59:19.414Z,99794.03
2022-10-19T17:01:47.011Z,99779.97
2022-10-19T17:04:15.971Z,99778.84
2022-10-19T17:06:42.669Z,99783.22
2022-10-19T17:11:55.963Z,99779.63
2022-10-19T17:14:23.093Z,99761.44
2022-10-19T17:16:49.875Z,99759.50
2022-10-19T17:19:16.823Z,99763.91
2022-10-19T17:21:44.575Z,99759.78
2022-10-19T17:24:18.648Z,99768.84
2022-10-19T17:26:50.496Z,99763.28
2022-10-19T17:29:17.455Z,99767.72
2022-10-19T17:31:44.313Z,99762.47
2022-10-19T17:34:12.891Z,99763.00
2022-10-19T17:36:41.977Z,99746.47
2022-10-19T17:39:13.034Z,99747.03
2022-10-19T17:41:39.655Z,99764.06
2022-10-19T17:44:06.397Z,99757.44
2022-10-19T17:46:34.779Z,99742.84
2022-10-19T17:49:02.076Z,99750.88
2022-10-19T17:51:31.267Z,99747.81
2022-10-19T17:54:03.972Z,99747.22
2022-10-19T17:56:34.847Z,99738.72
2022-10-19T17:59:08.119Z,99734.03
2022-10-19T18:01:35.695Z,99743.94
2022-10-19T18:04:02.728Z,99750.78
2022-10-19T18:06:34.460Z,99741.69
2022-10-19T18:09:03.196Z,99758.16
2022-10-19T18:11:34.511Z,99741.94
2022-10-19T18:14:01.611Z,99729.53
2022-10-19T18:16:32.205Z,99737.47
2022-10-19T18:19:00.881Z,99734.16
2022-10-19T18:21:31.265Z,99735.81
2022-10-19T18:23:59.987Z,99743.22
2022-10-19T18:26:29.027Z,99744.31
2022-10-19T18:28:57.329Z,99747.28
2022-10-19T18:31:28.764Z,99742.34
2022-10-19T18:33:58.815Z,99744.47
2022-10-19T18:36:27.594Z,99738.19
2022-10-19T18:38:59.175Z,99732.03
2022-10-19T18:41:26.430Z,99733.66
2022-10-19T18:43:56.840Z,99728.13
2022-10-19T18:46:25.700Z,99729.22
2022-10-19T18:48:53.949Z,99735.81
2022-10-19T18:51:22.147Z,99737.16
2022-10-19T18:53:48.981Z,99731.06
2022-10-19T18:56:18.106Z,99734.06
2022-10-19T18:58:45.380Z,99737.91
2022-10-19T19:01:16.210Z,99740.94
2022-10-19T19:03:46.137Z,99726.59
2022-10-19T19:06:17.513Z,99737.09
2022-10-19T19:08:48.351Z,99743.09
2022-10-19T19:11:21.706Z,99744.19
2022-10-19T19:13:55.659Z,99740.63
2022-10-19T19:16:23.793Z,99742.25
2022-10-19T19:18:51.419Z,99779.34
2022-10-19T19:21:21.463Z,99796.41
2022-10-19T19:23:48.977Z,99788.47
2022-10-19T19:26:17.059Z,99792.34
2022-10-19T19:28:46.383Z,99774.22
2022-10-19T19:31:16.185Z,99753.06
2022-10-19T19:33:47.990Z,99748.69
2022-10-19T19:36:16.102Z,99736.00
2022-10-19T19:38:43.598Z,99735.78
2022-10-19T19:41:13.243Z,99735.50
2022-10-19T19:43:41.125Z,99733.03
2022-10-19T19:46:12.802Z,99742.09
2022-10-19T19:48:41.519Z,99735.47
2022-10-19T19:51:10.404Z,99726.72
2022-10-19T19:53:38.112Z,99704.16
2022-10-19T19:56:07.964Z,99693.16
2022-10-19T19:58:35.009Z,99678.38
2022-10-19T20:01:12.139Z,99677.78
2022-10-19T20:03:39.353Z,99692.09
2022-10-19T20:06:06.841Z,99673.38
2022-10-19T20:08:34.070Z,99675.56
2022-10-19T20:11:04.797Z,99681.06
2022-10-19T20:13:32.226Z,99681.63
2022-10-19T20:16:02.517Z,99662.13
2022-10-19T20:18:30.360Z,99653.28
2022-10-19T20:21:02.366Z,99649.75
2022-10-19T20:23:30.116Z,99654.94
2022-10-19T20:25:57.139Z,99644.22
2022-10-19T20:28:25.302Z,99642.25
2022-10-19T20:31:07.631Z,99629.56
2022-10-19T20:33:37.079Z,99627.09
2022-10-19T20:36:08.886Z,99625.72
2022-10-19T20:38:37.335Z,99618.31
2022-10-19T20:41:08.027Z,99611.94
2022-10-19T20:43:37.208Z,99612.84
2022-10-19T20:46:23.267Z,99592.47
2022-10-19T20:48:50.804Z,99595.75
2022-10-19T20:51:38.736Z,99602.06
2022-10-19T20:54:08.300Z,99615.28
2022-10-19T20:56:38.144Z,99622.72
2022-10-19T20:59:17.021Z,99631.00
2022-10-19T21:01:45.239Z,99643.13
2022-10-19T21:04:15.660Z,99629.09
2022-10-19T21:06:47.463Z,99637.66
2022-10-19T21:09:18.365Z,99645.91
2022-10-19T21:11:47.324Z,99665.16
2022-10-19T21:14:22.406Z,99657.72
2022-10-19T21:16:52.570Z,99645.59
2022-10-19T21:19:22.344Z,99643.69
2022-10-19T21:21:52.793Z,99634.38
2022-10-19T21:24:24.499Z,99631.88
2022-10-19T21:29:23.334Z,99620.38
2022-10-19T21:31:53.012Z,99623.94
2022-10-19T21:34:23.006Z,99624.47
2022-10-19T21:36:49.899Z,99619.84
2022-10-19T21:39:17.102Z,99617.91
2022-10-19T21:41:43.914Z,99629.19
2022-10-19T21:44:10.623Z,99608.59
2022-10-19T21:46:37.353Z,99605.28
2022-10-19T21:49:04.011Z,99604.19
2022-10-19T21:51:42.240Z,99606.13
2022-10-19T21:54:12.207Z,99612.44
2022-10-19T21:56:38.825Z,99601.50
2022-10-19T21:59:05.655Z,99595.41
2022-10-19T22:01:38.679Z,99591.31
2022-10-19T22:04:11.491Z,99586.59
2022-10-19T22:06:46.487Z,99595.66
2022-10-19T22:09:17.252Z,99594.03
2022-10-19T22:11:46.049Z,99583.56
2022-10-19T22:14:14.734Z,99570.44
2022-10-19T22:16:42.187Z,99579.75
2022-10-19T22:19:10.186Z,99569.28
2022-10-19T22:24:13.533Z,99572.31
2022-10-19T22:26:43.342Z,99569.00
2022-10-19T22:29:11.524Z,99559.38
2022-10-19T22:31:38.938Z,99555.81
2022-10-19T22:34:09.608Z,99556.38
2022-10-19T22:36:36.648Z,99552.50
2022-10-19T22:39:04.034Z,99557.47
2022-10-19T22:41:31.403Z,99555.81
2022-10-19T22:43:58.172Z,99557.47
2022-10-19T22:46:26.426Z,99560.75
2022-10-19T22:48:53.138Z,99559.44
2022-10-19T22:51:19.810Z,99554.72
2022-10-19T22:53:46.470Z,99555.25
2022-10-19T22:56:13.753Z,99540.41
2022-10-19T22:58:40.436Z,99532.16
2022-10-19T23:01:10.391Z,99529.41
2022-10-19T23:03:40.339Z,99529.97
2022-10-19T23:06:13.396Z,99512.09
2022-10-19T23:08:40.270Z,99519.28
2022-10-19T23:11:07.579Z,99500.06
2022-10-19T23:13:35.206Z,99498.41
2022-10-19T23:16:02.221Z,99494.22
2022-10-19T23:18:34.007Z,99480.50
2022-10-19T23:21:03.560Z,99491.19
2022-10-19T23:23:31.851Z,99503.03
2022-10-19T23:26:02.830Z,99499.78
2022-10-19T23:28:31.398Z,99491.00
2022-10-19T23:30:59.373Z,99497.31
2022-10-19T23:33:26.255Z,99475.31
2022-10-19T23:35:53.201Z,99479.44
2022-10-19T23:38:19.810Z,99465.13
2022-10-19T23:40:46.408Z,99454.13
2022-10-19T23:43:13.016Z,99462.94
2022-10-19T23:45:39.723Z,99454.69
2022-10-19T23:48:06.539Z,99446.16
2022-10-19T23:50:33.292Z,99436.00
2022-10-19T23:52:59.922Z,99437.91
2022-10-19T23:55:26.518Z,99440.13
2022-10-19T23:57:53.301Z,99420.88
